sensor_id;sensor_type;location;lat;lon;timestamp;P1;durP1;ratioP1;P2;durP2;ratioP2
16969;SDS011;8601;48.718;8.992;2022-12-18T00:00:13;47.70;;;26.10;;
16969;SDS011;8601;48.718;8.992;2022-12-18T00:02:42;46.53;;;27.87;;
16969;SDS011;8601;48.718;8.992;2022-12-18T00:05:09;47.17;;;27.27;;
16969;SDS011;8601;48.718;8.992;2022-12-18T00:07:36;46.20;;;27.53;;
16969;SDS011;8601;48.718;8.992;2022-12-18T00:10:05;48.70;;;27.40;;
16969;SDS011;8601;48.718;8.992;2022-12-18T00:12:33;47.67;;;27.93;;
16969;SDS011;8601;48.718;8.992;2022-12-18T00:15:05;49.47;;;29.17;;
16969;SDS011;8601;48.718;8.992;2022-12-18T00:17:32;50.57;;;27.50;;
16969;SDS011;8601;48.718;8.992;2022-12-18T00:19:59;47.10;;;27.00;;
16969;SDS011;8601;48.718;8.992;2022-12-18T00:22:26;42.73;;;26.63;;
16969;SDS011;8601;48.718;8.992;2022-12-18T00:24:53;50.77;;;29.73;;
16969;SDS011;8601;48.718;8.992;2022-12-18T00:27:20;48.27;;;27.10;;
16969;SDS011;8601;48.718;8.992;2022-12-18T00:29:47;44.50;;;25.13;;
16969;SDS011;8601;48.718;8.992;2022-12-18T00:32:17;46.23;;;25.97;;
16969;SDS011;8601;48.718;8.992;2022-12-18T00:34:44;41.63;;;26.43;;
16969;SDS011;8601;48.718;8.992;2022-12-18T00:37:11;42.77;;;25.40;;
16969;SDS011;8601;48.718;8.992;2022-12-18T00:39:37;50.40;;;26.90;;
16969;SDS011;8601;48.718;8.992;2022-12-18T00:42:04;65.03;;;33.57;;
16969;SDS011;8601;48.718;8.992;2022-12-18T00:44:50;51.97;;;29.57;;
16969;SDS011;8601;48.718;8.992;2022-12-18T00:47:18;60.07;;;30.77;;
16969;SDS011;8601;48.718;8.992;2022-12-18T00:49:45;51.67;;;29.23;;
16969;SDS011;8601;48.718;8.992;2022-12-18T00:52:12;46.80;;;27.57;;
16969;SDS011;8601;48.718;8.992;2022-12-18T00:54:39;45.87;;;26.73;;
16969;SDS011;8601;48.718;8.992;2022-12-18T00:57:06;47.00;;;26.50;;
16969;SDS011;8601;48.718;8.992;2022-12-18T00:59:34;43.80;;;25.90;;
16969;SDS011;8601;48.718;8.992;2022-12-18T01:02:01;41.07;;;24.30;;
16969;SDS011;8601;48.718;8.992;2022-12-18T01:04:30;40.40;;;23.20;;
16969;SDS011;8601;48.718;8.992;2022-12-18T01:06:57;40.23;;;23.33;;
16969;SDS011;8601;48.718;8.992;2022-12-18T01:09:24;39.40;;;23.53;;
16969;SDS011;8601;48.718;8.992;2022-12-18T01:11:51;36.17;;;24.50;;
16969;SDS011;8601;48.718;8.992;2022-12-18T01:14:18;40.40;;;22.77;;
16969;SDS011;8601;48.718;8.992;2022-12-18T01:16:45;37.97;;;23.70;;
16969;SDS011;8601;48.718;8.992;2022-12-18T01:19:13;44.27;;;22.70;;
16969;SDS011;8601;48.718;8.992;2022-12-18T01:21:42;41.97;;;25.33;;
16969;SDS011;8601;48.718;8.992;2022-12-18T01:24:10;43.97;;;24.73;;
16969;SDS011;8601;48.718;8.992;2022-12-18T01:26:38;39.67;;;24.20;;
16969;SDS011;8601;48.718;8.992;2022-12-18T01:29:06;43.43;;;23.73;;
16969;SDS011;8601;48.718;8.992;2022-12-18T01:31:34;38.97;;;23.13;;
16969;SDS011;8601;48.718;8.992;2022-12-18T01:34:01;44.30;;;23.37;;
16969;SDS011;8601;48.718;8.992;2022-12-18T01:36:29;42.10;;;23.97;;
16969;SDS011;8601;48.718;8.992;2022-12-18T01:39:00;41.57;;;22.70;;
16969;SDS011;8601;48.718;8.992;2022-12-18T01:41:28;39.87;;;23.27;;
16969;SDS011;8601;48.718;8.992;2022-12-18T01:47:35;43.13;;;23.50;;
16969;SDS011;8601;48.718;8.992;2022-12-18T01:50:07;34.63;;;22.37;;
16969;SDS011;8601;48.718;8.992;2022-12-18T01:52:36;41.57;;;23.23;;
16969;SDS011;8601;48.718;8.992;2022-12-18T01:55:07;38.43;;;23.50;;
16969;SDS011;8601;48.718;8.992;2022-12-18T01:57:35;39.20;;;24.20;;
16969;SDS011;8601;48.718;8.992;2022-12-18T02:00:04;39.80;;;23.37;;
16969;SDS011;8601;48.718;8.992;2022-12-18T02:02:33;35.20;;;21.83;;
16969;SDS011;8601;48.718;8.992;2022-12-18T02:05:02;35.90;;;20.93;;
16969;SDS011;8601;48.718;8.992;2022-12-18T02:07:32;35.23;;;21.23;;
16969;SDS011;8601;48.718;8.992;2022-12-18T02:10:10;37.07;;;20.93;;
16969;SDS011;8601;48.718;8.992;2022-12-18T02:12:42;34.27;;;20.33;;
16969;SDS011;8601;48.718;8.992;2022-12-18T02:15:15;33.83;;;20.67;;
16969;SDS011;8601;48.718;8.992;2022-12-18T02:17:47;35.87;;;21.17;;
16969;SDS011;8601;48.718;8.992;2022-12-18T02:20:21;41.33;;;23.70;;
16969;SDS011;8601;48.718;8.992;2022-12-18T02:22:57;42.20;;;25.00;;
16969;SDS011;8601;48.718;8.992;2022-12-18T02:25:38;43.80;;;24.60;;
16969;SDS011;8601;48.718;8.992;2022-12-18T02:28:13;34.50;;;22.77;;
16969;SDS011;8601;48.718;8.992;2022-12-18T02:33:25;44.13;;;25.23;;
16969;SDS011;8601;48.718;8.992;2022-12-18T02:35:54;40.50;;;23.03;;
16969;SDS011;8601;48.718;8.992;2022-12-18T02:38:22;34.90;;;21.80;;
16969;SDS011;8601;48.718;8.992;2022-12-18T02:40:52;42.97;;;24.07;;
16969;SDS011;8601;48.718;8.992;2022-12-18T02:43:22;35.67;;;21.13;;
16969;SDS011;8601;48.718;8.992;2022-12-18T02:45:57;38.40;;;21.20;;
16969;SDS011;8601;48.718;8.992;2022-12-18T02:48:28;32.33;;;20.50;;
16969;SDS011;8601;48.718;8.992;2022-12-18T02:50:59;34.33;;;19.93;;
16969;SDS011;8601;48.718;8.992;2022-12-18T02:53:33;34.07;;;20.93;;
16969;SDS011;8601;48.718;8.992;2022-12-18T02:56:07;32.40;;;20.20;;
16969;SDS011;8601;48.718;8.992;2022-12-18T02:58:41;34.70;;;19.97;;
16969;SDS011;8601;48.718;8.992;2022-12-18T03:01:15;35.47;;;20.83;;
16969;SDS011;8601;48.718;8.992;2022-12-18T03:03:49;34.43;;;20.87;;
16969;SDS011;8601;48.718;8.992;2022-12-18T03:06:25;33.67;;;21.07;;
16969;SDS011;8601;48.718;8.992;2022-12-18T03:08:56;30.70;;;19.43;;
16969;SDS011;8601;48.718;8.992;2022-12-18T03:11:25;31.70;;;20.13;;
16969;SDS011;8601;48.718;8.992;2022-12-18T03:14:15;30.57;;;19.37;;
16969;SDS011;8601;48.718;8.992;2022-12-18T03:16:44;26.63;;;17.57;;
16969;SDS011;8601;48.718;8.992;2022-12-18T03:19:14;33.50;;;20.60;;
16969;SDS011;8601;48.718;8.992;2022-12-18T03:21:45;29.83;;;18.47;;
16969;SDS011;8601;48.718;8.992;2022-12-18T03:24:15;31.60;;;19.47;;
16969;SDS011;8601;48.718;8.992;2022-12-18T03:26:46;34.40;;;19.77;;
16969;SDS011;8601;48.718;8.992;2022-12-18T03:29:17;29.20;;;18.90;;
16969;SDS011;8601;48.718;8.992;2022-12-18T03:31:49;30.30;;;18.87;;
16969;SDS011;8601;48.718;8.992;2022-12-18T03:34:21;34.13;;;19.40;;
16969;SDS011;8601;48.718;8.992;2022-12-18T03:36:53;31.60;;;20.30;;
16969;SDS011;8601;48.718;8.992;2022-12-18T03:39:20;30.03;;;18.77;;
16969;SDS011;8601;48.718;8.992;2022-12-18T03:41:48;35.10;;;19.60;;
16969;SDS011;8601;48.718;8.992;2022-12-18T03:44:26;30.13;;;19.50;;
16969;SDS011;8601;48.718;8.992;2022-12-18T03:47:05;31.97;;;19.20;;
16969;SDS011;8601;48.718;8.992;2022-12-18T03:49:38;29.97;;;19.13;;
16969;SDS011;8601;48.718;8.992;2022-12-18T03:52:11;27.60;;;18.67;;
16969;SDS011;8601;48.718;8.992;2022-12-18T03:54:42;32.53;;;18.60;;
16969;SDS011;8601;48.718;8.992;2022-12-18T03:57:11;29.87;;;18.80;;
16969;SDS011;8601;48.718;8.992;2022-12-18T03:59:43;28.57;;;17.57;;
16969;SDS011;8601;48.718;8.992;2022-12-18T04:02:12;36.93;;;18.13;;
16969;SDS011;8601;48.718;8.992;2022-12-18T04:04:41;34.20;;;18.73;;
16969;SDS011;8601;48.718;8.992;2022-12-18T04:07:09;34.07;;;19.07;;
16969;SDS011;8601;48.718;8.992;2022-12-18T04:09:38;31.87;;;17.53;;
16969;SDS011;8601;48.718;8.992;2022-12-18T04:12:06;34.43;;;18.00;;
16969;SDS011;8601;48.718;8.992;2022-12-18T04:14:34;33.33;;;18.23;;
16969;SDS011;8601;48.718;8.992;2022-12-18T04:17:04;39.87;;;19.20;;
16969;SDS011;8601;48.718;8.992;2022-12-18T04:19:32;29.20;;;17.57;;
16969;SDS011;8601;48.718;8.992;2022-12-18T04:21:58;32.10;;;17.50;;
16969;SDS011;8601;48.718;8.992;2022-12-18T04:24:25;32.53;;;18.53;;
16969;SDS011;8601;48.718;8.992;2022-12-18T04:26:53;33.20;;;18.83;;
16969;SDS011;8601;48.718;8.992;2022-12-18T04:29:19;39.57;;;19.37;;
16969;SDS011;8601;48.718;8.992;2022-12-18T04:31:47;33.23;;;19.10;;
16969;SDS011;8601;48.718;8.992;2022-12-18T04:34:16;30.27;;;18.40;;
16969;SDS011;8601;48.718;8.992;2022-12-18T04:36:42;30.40;;;18.17;;
16969;SDS011;8601;48.718;8.992;2022-12-18T04:39:09;29.57;;;17.23;;
16969;SDS011;8601;48.718;8.992;2022-12-18T04:41:36;34.47;;;18.87;;
16969;SDS011;8601;48.718;8.992;2022-12-18T04:44:03;33.73;;;19.67;;
16969;SDS011;8601;48.718;8.992;2022-12-18T04:46:31;33.07;;;19.77;;
16969;SDS011;8601;48.718;8.992;2022-12-18T04:48:58;30.77;;;18.70;;
16969;SDS011;8601;48.718;8.992;2022-12-18T04:51:26;32.97;;;19.17;;
16969;SDS011;8601;48.718;8.992;2022-12-18T04:53:53;36.50;;;19.93;;
16969;SDS011;8601;48.718;8.992;2022-12-18T04:56:20;34.30;;;19.57;;
16969;SDS011;8601;48.718;8.992;2022-12-18T04:58:47;35.17;;;19.37;;
16969;SDS011;8601;48.718;8.992;2022-12-18T05:01:15;32.73;;;18.97;;
16969;SDS011;8601;48.718;8.992;2022-12-18T05:03:45;32.67;;;18.23;;
16969;SDS011;8601;48.718;8.992;2022-12-18T05:06:12;34.40;;;19.27;;
16969;SDS011;8601;48.718;8.992;2022-12-18T05:08:40;34.57;;;20.13;;
16969;SDS011;8601;48.718;8.992;2022-12-18T05:11:08;33.67;;;20.10;;
16969;SDS011;8601;48.718;8.992;2022-12-18T05:13:39;36.03;;;20.47;;
16969;SDS011;8601;48.718;8.992;2022-12-18T05:16:06;42.20;;;18.77;;
16969;SDS011;8601;48.718;8.992;2022-12-18T05:18:33;30.00;;;18.67;;
16969;SDS011;8601;48.718;8.992;2022-12-18T05:21:01;41.20;;;20.20;;
16969;SDS011;8601;48.718;8.992;2022-12-18T05:23:28;37.03;;;20.30;;
16969;SDS011;8601;48.718;8.992;2022-12-18T05:25:58;38.33;;;21.03;;
16969;SDS011;8601;48.718;8.992;2022-12-18T05:28:26;37.03;;;20.63;;
16969;SDS011;8601;48.718;8.992;2022-12-18T05:30:56;40.10;;;20.47;;
16969;SDS011;8601;48.718;8.992;2022-12-18T05:33:25;36.97;;;21.23;;
16969;SDS011;8601;48.718;8.992;2022-12-18T05:35:55;34.60;;;20.03;;
16969;SDS011;8601;48.718;8.992;2022-12-18T05:38:23;34.30;;;19.47;;
16969;SDS011;8601;48.718;8.992;2022-12-18T05:40:52;38.83;;;20.63;;
16969;SDS011;8601;48.718;8.992;2022-12-18T05:43:21;34.10;;;19.83;;
16969;SDS011;8601;48.718;8.992;2022-12-18T05:45:49;34.77;;;19.87;;
16969;SDS011;8601;48.718;8.992;2022-12-18T05:48:16;33.33;;;19.27;;
16969;SDS011;8601;48.718;8.992;2022-12-18T05:50:46;33.37;;;18.63;;
16969;SDS011;8601;48.718;8.992;2022-12-18T05:53:15;34.37;;;19.30;;
16969;SDS011;8601;48.718;8.992;2022-12-18T05:55:44;33.40;;;19.43;;
16969;SDS011;8601;48.718;8.992;2022-12-18T05:58:11;31.23;;;19.80;;
16969;SDS011;8601;48.718;8.992;2022-12-18T06:00:41;32.97;;;19.43;;
16969;SDS011;8601;48.718;8.992;2022-12-18T06:03:09;30.70;;;18.37;;
16969;SDS011;8601;48.718;8.992;2022-12-18T06:05:39;26.70;;;17.80;;
16969;SDS011;8601;48.718;8.992;2022-12-18T06:08:07;26.90;;;17.13;;
16969;SDS011;8601;48.718;8.992;2022-12-18T06:10:34;30.33;;;18.17;;
16969;SDS011;8601;48.718;8.992;2022-12-18T06:13:01;29.53;;;18.30;;
16969;SDS011;8601;48.718;8.992;2022-12-18T06:15:28;29.80;;;18.90;;
16969;SDS011;8601;48.718;8.992;2022-12-18T06:17:56;26.90;;;16.47;;
16969;SDS011;8601;48.718;8.992;2022-12-18T06:20:24;25.83;;;16.77;;
16969;SDS011;8601;48.718;8.992;2022-12-18T06:22:50;25.03;;;17.27;;
16969;SDS011;8601;48.718;8.992;2022-12-18T06:25:18;25.70;;;16.00;;
16969;SDS011;8601;48.718;8.992;2022-12-18T06:27:46;26.57;;;16.37;;
16969;SDS011;8601;48.718;8.992;2022-12-18T06:30:14;27.90;;;16.70;;
16969;SDS011;8601;48.718;8.992;2022-12-18T06:32:41;30.77;;;18.53;;
16969;SDS011;8601;48.718;8.992;2022-12-18T06:35:09;27.70;;;17.33;;
16969;SDS011;8601;48.718;8.992;2022-12-18T06:37:36;28.13;;;17.53;;
16969;SDS011;8601;48.718;8.992;2022-12-18T06:40:03;30.23;;;17.47;;
16969;SDS011;8601;48.718;8.992;2022-12-18T06:42:31;27.03;;;16.93;;
16969;SDS011;8601;48.718;8.992;2022-12-18T06:44:58;24.70;;;15.07;;
16969;SDS011;8601;48.718;8.992;2022-12-18T06:47:25;28.10;;;16.10;;
16969;SDS011;8601;48.718;8.992;2022-12-18T06:49:52;28.00;;;16.37;;
16969;SDS011;8601;48.718;8.992;2022-12-18T06:52:20;29.43;;;17.10;;
16969;SDS011;8601;48.718;8.992;2022-12-18T06:54:47;28.50;;;16.17;;
16969;SDS011;8601;48.718;8.992;2022-12-18T06:57:14;28.57;;;17.83;;
16969;SDS011;8601;48.718;8.992;2022-12-18T06:59:41;26.80;;;16.80;;
16969;SDS011;8601;48.718;8.992;2022-12-18T07:02:10;29.00;;;17.30;;
16969;SDS011;8601;48.718;8.992;2022-12-18T07:04:37;25.97;;;16.70;;
16969;SDS011;8601;48.718;8.992;2022-12-18T07:07:06;28.43;;;17.20;;
16969;SDS011;8601;48.718;8.992;2022-12-18T07:09:34;27.30;;;16.83;;
16969;SDS011;8601;48.718;8.992;2022-12-18T07:12:02;27.33;;;16.60;;
16969;SDS011;8601;48.718;8.992;2022-12-18T07:14:29;34.90;;;19.90;;
16969;SDS011;8601;48.718;8.992;2022-12-18T07:16:56;30.23;;;18.60;;
16969;SDS011;8601;48.718;8.992;2022-12-18T07:19:23;31.93;;;18.10;;
16969;SDS011;8601;48.718;8.992;2022-12-18T07:21:50;29.63;;;17.67;;
16969;SDS011;8601;48.718;8.992;2022-12-18T07:24:17;28.33;;;15.37;;
16969;SDS011;8601;48.718;8.992;2022-12-18T07:26:46;29.83;;;17.63;;
16969;SDS011;8601;48.718;8.992;2022-12-18T07:29:13;29.10;;;17.33;;
16969;SDS011;8601;48.718;8.992;2022-12-18T07:31:42;30.07;;;17.90;;
16969;SDS011;8601;48.718;8.992;2022-12-18T07:34:10;27.80;;;17.30;;
16969;SDS011;8601;48.718;8.992;2022-12-18T07:36:37;26.57;;;15.50;;
16969;SDS011;8601;48.718;8.992;2022-12-18T07:39:05;31.97;;;17.83;;
16969;SDS011;8601;48.718;8.992;2022-12-18T07:41:32;28.57;;;18.63;;
16969;SDS011;8601;48.718;8.992;2022-12-18T07:44:00;29.90;;;16.30;;
16969;SDS011;8601;48.718;8.992;2022-12-18T07:46:27;33.60;;;18.67;;
16969;SDS011;8601;48.718;8.992;2022-12-18T07:48:54;27.77;;;16.77;;
16969;SDS011;8601;48.718;8.992;2022-12-18T07:51:22;29.40;;;18.37;;
16969;SDS011;8601;48.718;8.992;2022-12-18T07:53:59;27.83;;;17.70;;
16969;SDS011;8601;48.718;8.992;2022-12-18T07:56:26;30.93;;;16.83;;
16969;SDS011;8601;48.718;8.992;2022-12-18T07:58:53;28.27;;;17.43;;
16969;SDS011;8601;48.718;8.992;2022-12-18T08:01:28;27.50;;;16.67;;
16969;SDS011;8601;48.718;8.992;2022-12-18T08:03:55;28.13;;;17.40;;
16969;SDS011;8601;48.718;8.992;2022-12-18T08:06:21;31.40;;;18.97;;
16969;SDS011;8601;48.718;8.992;2022-12-18T08:08:48;35.43;;;19.80;;
16969;SDS011;8601;48.718;8.992;2022-12-18T08:11:17;29.60;;;18.63;;
16969;SDS011;8601;48.718;8.992;2022-12-18T08:13:45;31.13;;;17.53;;
16969;SDS011;8601;48.718;8.992;2022-12-18T08:16:12;32.97;;;18.87;;
16969;SDS011;8601;48.718;8.992;2022-12-18T08:18:41;29.70;;;17.43;;
16969;SDS011;8601;48.718;8.992;2022-12-18T08:21:08;30.27;;;17.43;;
16969;SDS011;8601;48.718;8.992;2022-12-18T08:23:35;29.47;;;17.70;;
16969;SDS011;8601;48.718;8.992;2022-12-18T08:26:02;25.87;;;16.53;;
16969;SDS011;8601;48.718;8.992;2022-12-18T08:28:29;30.40;;;18.07;;
16969;SDS011;8601;48.718;8.992;2022-12-18T08:30:57;31.63;;;18.67;;
16969;SDS011;8601;48.718;8.992;2022-12-18T08:33:24;31.60;;;18.90;;
16969;SDS011;8601;48.718;8.992;2022-12-18T08:35:53;30.87;;;18.33;;
16969;SDS011;8601;48.718;8.992;2022-12-18T08:38:20;30.30;;;17.47;;
16969;SDS011;8601;48.718;8.992;2022-12-18T08:40:48;32.33;;;19.33;;
16969;SDS011;8601;48.718;8.992;2022-12-18T08:43:15;30.00;;;18.73;;
16969;SDS011;8601;48.718;8.992;2022-12-18T08:45:59;31.13;;;18.60;;
16969;SDS011;8601;48.718;8.992;2022-12-18T08:48:26;27.77;;;18.10;;
16969;SDS011;8601;48.718;8.992;2022-12-18T08:50:55;31.77;;;19.17;;
16969;SDS011;8601;48.718;8.992;2022-12-18T08:53:22;30.70;;;18.40;;
16969;SDS011;8601;48.718;8.992;2022-12-18T08:55:49;30.27;;;18.27;;
16969;SDS011;8601;48.718;8.992;2022-12-18T08:58:16;28.63;;;17.63;;
16969;SDS011;8601;48.718;8.992;2022-12-18T09:00:43;29.67;;;17.77;;
16969;SDS011;8601;48.718;8.992;2022-12-18T09:03:10;30.30;;;18.03;;
16969;SDS011;8601;48.718;8.992;2022-12-18T09:05:38;33.73;;;19.53;;
16969;SDS011;8601;48.718;8.992;2022-12-18T09:08:07;31.93;;;18.67;;
16969;SDS011;8601;48.718;8.992;2022-12-18T09:10:40;31.57;;;18.90;;
16969;SDS011;8601;48.718;8.992;2022-12-18T09:13:08;31.67;;;18.97;;
16969;SDS011;8601;48.718;8.992;2022-12-18T09:15:39;30.20;;;19.10;;
16969;SDS011;8601;48.718;8.992;2022-12-18T09:18:07;32.60;;;19.27;;
16969;SDS011;8601;48.718;8.992;2022-12-18T09:20:34;30.03;;;18.07;;
16969;SDS011;8601;48.718;8.992;2022-12-18T09:23:01;32.00;;;18.93;;
16969;SDS011;8601;48.718;8.992;2022-12-18T09:25:30;30.53;;;18.20;;
16969;SDS011;8601;48.718;8.992;2022-12-18T09:27:58;30.00;;;18.27;;
16969;SDS011;8601;48.718;8.992;2022-12-18T09:30:25;31.53;;;18.00;;
16969;SDS011;8601;48.718;8.992;2022-12-18T09:32:53;35.30;;;19.10;;
16969;SDS011;8601;48.718;8.992;2022-12-18T09:35:20;31.47;;;18.13;;
16969;SDS011;8601;48.718;8.992;2022-12-18T09:37:47;34.63;;;19.27;;
16969;SDS011;8601;48.718;8.992;2022-12-18T09:40:14;28.40;;;18.23;;
16969;SDS011;8601;48.718;8.992;2022-12-18T09:42:46;28.13;;;17.10;;
16969;SDS011;8601;48.718;8.992;2022-12-18T09:45:17;28.40;;;18.47;;
16969;SDS011;8601;48.718;8.992;2022-12-18T09:47:44;29.67;;;18.47;;
16969;SDS011;8601;48.718;8.992;2022-12-18T09:50:17;31.70;;;20.03;;
16969;SDS011;8601;48.718;8.992;2022-12-18T09:52:52;32.30;;;20.13;;
16969;SDS011;8601;48.718;8.992;2022-12-18T09:55:24;32.43;;;20.30;;
16969;SDS011;8601;48.718;8.992;2022-12-18T09:57:56;31.63;;;20.27;;
16969;SDS011;8601;48.718;8.992;2022-12-18T10:00:27;35.80;;;20.70;;
16969;SDS011;8601;48.718;8.992;2022-12-18T10:02:58;31.63;;;19.83;;
16969;SDS011;8601;48.718;8.992;2022-12-18T10:05:29;31.10;;;19.23;;
16969;SDS011;8601;48.718;8.992;2022-12-18T10:08:02;29.47;;;18.50;;
16969;SDS011;8601;48.718;8.992;2022-12-18T10:10:35;29.60;;;18.33;;
16969;SDS011;8601;48.718;8.992;2022-12-18T10:13:11;28.93;;;18.73;;
16969;SDS011;8601;48.718;8.992;2022-12-18T10:15:47;30.33;;;17.10;;
16969;SDS011;8601;48.718;8.992;2022-12-18T10:18:27;29.60;;;17.07;;
16969;SDS011;8601;48.718;8.992;2022-12-18T10:21:02;26.60;;;16.67;;
16969;SDS011;8601;48.718;8.992;2022-12-18T10:23:37;29.77;;;17.87;;
16969;SDS011;8601;48.718;8.992;2022-12-18T10:26:12;32.17;;;18.30;;
16969;SDS011;8601;48.718;8.992;2022-12-18T10:28:42;28.63;;;17.73;;
16969;SDS011;8601;48.718;8.992;2022-12-18T10:31:12;25.80;;;17.00;;
16969;SDS011;8601;48.718;8.992;2022-12-18T10:33:42;27.47;;;17.90;;
16969;SDS011;8601;48.718;8.992;2022-12-18T10:36:09;27.57;;;18.40;;
16969;SDS011;8601;48.718;8.992;2022-12-18T10:38:37;27.13;;;17.13;;
16969;SDS011;8601;48.718;8.992;2022-12-18T10:41:05;27.60;;;17.67;;
16969;SDS011;8601;48.718;8.992;2022-12-18T10:43:53;28.07;;;17.57;;
16969;SDS011;8601;48.718;8.992;2022-12-18T10:46:37;26.50;;;17.57;;
16969;SDS011;8601;48.718;8.992;2022-12-18T10:49:05;26.00;;;17.33;;
16969;SDS011;8601;48.718;8.992;2022-12-18T10:51:44;33.60;;;20.30;;
16969;SDS011;8601;48.718;8.992;2022-12-18T10:54:13;30.50;;;18.33;;
16969;SDS011;8601;48.718;8.992;2022-12-18T10:56:42;45.20;;;24.87;;
16969;SDS011;8601;48.718;8.992;2022-12-18T10:59:11;43.07;;;24.47;;
16969;SDS011;8601;48.718;8.992;2022-12-18T11:01:46;31.73;;;19.73;;
16969;SDS011;8601;48.718;8.992;2022-12-18T11:04:20;38.17;;;21.67;;
16969;SDS011;8601;48.718;8.992;2022-12-18T11:06:52;28.37;;;18.50;;
16969;SDS011;8601;48.718;8.992;2022-12-18T11:09:22;33.80;;;21.60;;
16969;SDS011;8601;48.718;8.992;2022-12-18T11:11:50;26.00;;;17.97;;
16969;SDS011;8601;48.718;8.992;2022-12-18T11:14:21;30.23;;;18.07;;
16969;SDS011;8601;48.718;8.992;2022-12-18T11:16:50;27.77;;;17.67;;
16969;SDS011;8601;48.718;8.992;2022-12-18T11:19:22;26.83;;;17.93;;
16969;SDS011;8601;48.718;8.992;2022-12-18T11:21:54;26.73;;;17.47;;
16969;SDS011;8601;48.718;8.992;2022-12-18T11:24:24;29.00;;;18.57;;
16969;SDS011;8601;48.718;8.992;2022-12-18T11:26:55;25.97;;;17.47;;
16969;SDS011;8601;48.718;8.992;2022-12-18T11:29:27;29.77;;;18.97;;
16969;SDS011;8601;48.718;8.992;2022-12-18T11:34:51;28.63;;;18.07;;
16969;SDS011;8601;48.718;8.992;2022-12-18T11:39:56;30.37;;;19.03;;
16969;SDS011;8601;48.718;8.992;2022-12-18T11:42:27;28.37;;;19.03;;
16969;SDS011;8601;48.718;8.992;2022-12-18T11:45:08;29.37;;;19.10;;
16969;SDS011;8601;48.718;8.992;2022-12-18T11:47:51;28.87;;;18.67;;
16969;SDS011;8601;48.718;8.992;2022-12-18T11:50:24;30.17;;;18.17;;
16969;SDS011;8601;48.718;8.992;2022-12-18T11:52:52;28.43;;;17.03;;
16969;SDS011;8601;48.718;8.992;2022-12-18T11:55:22;27.97;;;18.63;;
16969;SDS011;8601;48.718;8.992;2022-12-18T11:57:58;30.40;;;17.93;;
16969;SDS011;8601;48.718;8.992;2022-12-18T12:00:32;29.00;;;18.43;;
16969;SDS011;8601;48.718;8.992;2022-12-18T12:03:15;29.63;;;19.43;;
16969;SDS011;8601;48.718;8.992;2022-12-18T12:05:58;26.93;;;17.60;;
16969;SDS011;8601;48.718;8.992;2022-12-18T12:08:35;30.13;;;18.20;;
16969;SDS011;8601;48.718;8.992;2022-12-18T12:11:18;30.10;;;18.47;;
16969;SDS011;8601;48.718;8.992;2022-12-18T12:13:57;30.57;;;18.57;;
16969;SDS011;8601;48.718;8.992;2022-12-18T12:16:34;27.03;;;18.10;;
16969;SDS011;8601;48.718;8.992;2022-12-18T12:19:10;32.27;;;19.10;;
16969;SDS011;8601;48.718;8.992;2022-12-18T12:21:54;27.97;;;18.40;;
16969;SDS011;8601;48.718;8.992;2022-12-18T12:24:29;32.77;;;19.30;;
16969;SDS011;8601;48.718;8.992;2022-12-18T12:27:05;32.87;;;19.33;;
16969;SDS011;8601;48.718;8.992;2022-12-18T12:29:45;32.33;;;19.37;;
16969;SDS011;8601;48.718;8.992;2022-12-18T12:32:22;30.83;;;19.10;;
16969;SDS011;8601;48.718;8.992;2022-12-18T12:35:01;29.93;;;18.77;;
16969;SDS011;8601;48.718;8.992;2022-12-18T12:37:38;29.27;;;18.47;;
16969;SDS011;8601;48.718;8.992;2022-12-18T12:40:12;31.20;;;20.07;;
16969;SDS011;8601;48.718;8.992;2022-12-18T12:42:47;30.17;;;18.67;;
16969;SDS011;8601;48.718;8.992;2022-12-18T12:45:39;28.43;;;17.87;;
16969;SDS011;8601;48.718;8.992;2022-12-18T12:48:15;29.47;;;19.60;;
16969;SDS011;8601;48.718;8.992;2022-12-18T12:50:45;28.80;;;18.93;;
16969;SDS011;8601;48.718;8.992;2022-12-18T12:53:16;31.57;;;19.70;;
16969;SDS011;8601;48.718;8.992;2022-12-18T12:55:51;30.23;;;19.53;;
16969;SDS011;8601;48.718;8.992;2022-12-18T12:58:21;27.57;;;17.97;;
16969;SDS011;8601;48.718;8.992;2022-12-18T13:00:58;34.27;;;18.77;;
16969;SDS011;8601;48.718;8.992;2022-12-18T13:03:34;27.23;;;17.27;;
16969;SDS011;8601;48.718;8.992;2022-12-18T13:06:10;32.50;;;19.17;;
16969;SDS011;8601;48.718;8.992;2022-12-18T13:11:30;30.67;;;19.20;;
16969;SDS011;8601;48.718;8.992;2022-12-18T13:14:20;31.40;;;19.37;;
16969;SDS011;8601;48.718;8.992;2022-12-18T13:16:50;29.80;;;18.17;;
16969;SDS011;8601;48.718;8.992;2022-12-18T13:19:23;31.23;;;19.97;;
16969;SDS011;8601;48.718;8.992;2022-12-18T13:21:52;30.20;;;19.50;;
16969;SDS011;8601;48.718;8.992;2022-12-18T13:24:22;33.60;;;20.00;;
16969;SDS011;8601;48.718;8.992;2022-12-18T13:26:52;31.00;;;18.97;;
16969;SDS011;8601;48.718;8.992;2022-12-18T13:37:53;32.57;;;19.70;;
16969;SDS011;8601;48.718;8.992;2022-12-18T13:43:35;33.93;;;19.23;;
16969;SDS011;8601;48.718;8.992;2022-12-18T13:46:20;30.10;;;19.70;;
16969;SDS011;8601;48.718;8.992;2022-12-18T13:48:51;34.10;;;20.37;;
16969;SDS011;8601;48.718;8.992;2022-12-18T13:51:22;34.17;;;20.77;;
16969;SDS011;8601;48.718;8.992;2022-12-18T13:53:52;32.90;;;20.47;;
16969;SDS011;8601;48.718;8.992;2022-12-18T13:56:22;30.67;;;18.90;;
16969;SDS011;8601;48.718;8.992;2022-12-18T14:01:48;34.37;;;20.80;;
16969;SDS011;8601;48.718;8.992;2022-12-18T14:04:21;32.20;;;19.97;;
16969;SDS011;8601;48.718;8.992;2022-12-18T14:06:52;32.00;;;20.00;;
16969;SDS011;8601;48.718;8.992;2022-12-18T14:09:25;33.00;;;19.10;;
16969;SDS011;8601;48.718;8.992;2022-12-18T14:11:54;31.30;;;19.30;;
16969;SDS011;8601;48.718;8.992;2022-12-18T14:14:44;30.13;;;18.47;;
16969;SDS011;8601;48.718;8.992;2022-12-18T14:17:13;34.23;;;18.70;;
16969;SDS011;8601;48.718;8.992;2022-12-18T14:19:43;33.57;;;20.00;;
16969;SDS011;8601;48.718;8.992;2022-12-18T14:22:15;34.23;;;20.30;;
16969;SDS011;8601;48.718;8.992;2022-12-18T14:24:45;31.60;;;19.30;;
16969;SDS011;8601;48.718;8.992;2022-12-18T14:27:19;33.03;;;19.53;;
16969;SDS011;8601;48.718;8.992;2022-12-18T14:29:48;37.10;;;21.80;;
16969;SDS011;8601;48.718;8.992;2022-12-18T14:32:16;35.53;;;20.50;;
16969;SDS011;8601;48.718;8.992;2022-12-18T14:34:44;35.17;;;20.93;;
16969;SDS011;8601;48.718;8.992;2022-12-18T14:37:12;33.00;;;20.07;;
16969;SDS011;8601;48.718;8.992;2022-12-18T14:39:52;36.20;;;22.17;;
16969;SDS011;8601;48.718;8.992;2022-12-18T14:42:22;31.87;;;19.40;;
16969;SDS011;8601;48.718;8.992;2022-12-18T14:47:52;34.03;;;19.90;;
16969;SDS011;8601;48.718;8.992;2022-12-18T14:50:19;31.47;;;19.60;;
16969;SDS011;8601;48.718;8.992;2022-12-18T14:52:46;36.00;;;20.80;;
16969;SDS011;8601;48.718;8.992;2022-12-18T14:55:16;34.17;;;19.90;;
16969;SDS011;8601;48.718;8.992;2022-12-18T14:57:43;35.07;;;20.00;;
16969;SDS011;8601;48.718;8.992;2022-12-18T15:00:14;35.47;;;21.33;;
16969;SDS011;8601;48.718;8.992;2022-12-18T15:02:50;36.70;;;22.03;;
16969;SDS011;8601;48.718;8.992;2022-12-18T15:05:24;37.30;;;22.03;;
16969;SDS011;8601;48.718;8.992;2022-12-18T15:07:54;32.47;;;20.03;;
16969;SDS011;8601;48.718;8.992;2022-12-18T15:10:23;38.37;;;21.03;;
16969;SDS011;8601;48.718;8.992;2022-12-18T15:13:06;36.20;;;21.03;;
16969;SDS011;8601;48.718;8.992;2022-12-18T15:15:44;37.70;;;22.67;;
16969;SDS011;8601;48.718;8.992;2022-12-18T15:18:13;42.10;;;23.03;;
16969;SDS011;8601;48.718;8.992;2022-12-18T15:20:42;43.47;;;23.73;;
16969;SDS011;8601;48.718;8.992;2022-12-18T15:23:24;47.37;;;25.23;;